Terminal Aerodrome Forecast
Issued by NWS

Home | Current Version | Previous Version | Text Only | Print | Product List | Glossary On
Versions: 1 2 3 4 5 6 7 8 9 10 11 12 13 14
000
FTUS45 KPSR 252300
TAFBLH
TAF
KBLH 252320Z 2600/2624 17015G25KT P6SM FEW150
     FM260300 20012KT P6SM SCT150 BKN250
     FM261200 15008KT P6SM BKN250=

USA.gov is the U.S. government's official web portal to all federal, state and local government web resources and services.